Dunkeld, United Kingdom
Current Conditions -  °F | °C
As of 6:20 PM on Sunday 25 Jan 2015 (Local Time) from EGPN Reporting Station
Broken Clouds Broken Clouds  
Wind Chill: 38°   Ceiling: 2000
Heat Index: 45°   Visibility: 6mi
Dew Point: 43°   Wind: 15mph
Humidity: 93%   Direction: 250°WSW
Pressure: 29.91"   Gusts: NA
Location:  56.56°N, 3.58°W
Report Text: EGPN 251820Z 25013KT 9999 BKN020 07/06 Q1013
Loading
Personal Weather Stations






























Interactive Weather Map New forecast layout! Learn more

10-Day Weather Forecast

Advertisements
Track Severe Weather on mobile